Grider Field
KPBF : now visible

Aeroporto :











RITROVATECI SU...

 
LOGIN :

Iscrizione | Disclaimer

   EN    FR    IT 

 









Sommario :    VFR   VFR Marginale   IFR   IFR Intensivo   IFR Molto Intensivo
Visibilità : 
Base nubi : 
>= 8 km
>= 3000ft
5 / 8 km
1000 / 3000 ft
1500m / 5 km
500 / 1000 ft
800 / 1500m
200 / 500 ft
< 800m
< 200 ft
Simboli :   Temporali  Nebbia  Neve Forte  Precipitazioni Forti  Vento > 20 kt







- Altitudine del aeroporto : 206 ft


KPBF - Grider Field

ULTIMO METAR :
  • 201353Z AUTO 29008KT 10SM CLR 13/03 A3001 RMK AO2 SLP160 T01330028

METARs OBSOLETI :
  • 201253Z AUTO 29009KT 10SM CLR 09/03 A2999 RMK AO2 SLP155 T00940028
  • 201153Z AUTO 28008KT 10SM CLR 08/02 A2997 RMK AO2 SLP146 T00780022 10106 20078 53012

TAF KPBF
Valido dal 20 a 12 ore il 21 a 12 ore UTC


201120Z 2012/2112 VRB06KT P6SM SKC
FM201500 31010G16KT P6SM FEW250
FM210000 VRB04KT P6SM SKC
FIR KZME / America del Nord



MetMap, La meteo Aeronautica in un colpo d'occhio ! - Copyright ORBIFLY Dicembre 2007 - Disclaimer

ORBIFLY MET'MAP TEAM :

Programmazione e sviluppo : Alexandra Zaïnal
Concezione e sviluppo : Baudouin d'Aumeries
Co-Programmazione e sviluppo : Marc-Olivier Méhu
Supporto tecnico e logistico : Manuel Goepfert
Aiuto per la traduzione : Arnaldo La Scala

Contatto : metmap@orbifly.com




FONTI E CREDITI :

   NOAA       Earth
Advisory